Startpagina
METAR-TAF:

METAR-TAF

Vliegvelden :

Luchthaven Schiphol

Amsterdam, Nederland

breedte: 52-18N, lengte: 004-46E, hoogte: -4 m

Actueel weer

Dit bericht is 29 minuten geleden gemaakt, om 00:55 UTC
Wind 11 kt uit het oostnoordoosten
Temperatuur 2°C
Vochtigheid 80%
Druk 1031 hPa
Zicht 10 km of meer
geen wolken onder 1500 m en geen cumulonimbus

METAR: EHAM 180055Z 07011KT CAVOK 02/M01 Q1031 NOSIG

Tijdstip: 02:24 (01:24 UTC)

Verwachting

Dit bericht is 2 uur en het 18 minuten geleden gemaakt, om 23:06 UTC
Verwachting geldig van 18 om 00 UTC tot 19 om 06 UTC
Wind 11 kt uit het oostnoordoosten
Zicht 10 km of meer
geen wolken onder 1500 m en geen cumulonimbus
Wijzigt naar
van 18 om 20 UTC tot 18 om 23 UTC
Verspreide wolken op 1200 ft
Gebroken wolken op 1800 ft
Kans 40% :
Tijdelijke
van 18 om 21 UTC tot 19 om 06 UTC
Zicht: 6000 m
Verspreide wolken op 800 ft
Gebroken wolken op 1200 ft

TAF: EHAM 172306Z 1800/1906 07011KT CAVOK BECMG 1820/1823 SCT012 BKN018 PROB40 TEMPO 1821/1906 6000 SCT008 BKN012

Waarnemingen en weersverwachtingen van meer dan 4000 vliegvelden (METAR en TAF).

De beschikbare stations zijn de gele en rode punten op de kaart.

Ga met uw muis naar het station om de naam te zien.

Klik dan om waarnemingen en weersverwachtingen te zien.

kaart wijzigen: klik op de groene knoppen met een zwart kruis om in te zoomen, op de groene knop met een streepje om uit te zoomen of op de groene pijlen voor aangrenzende kaarten.


METAR-TAF: